Time;durP1;ratioP1;P1;durP2;ratioP2;P2;SDS_P1;SDS_P2;PMS_P1;PMS_P2;Temp;Humidity;BMP_temperature;BMP_pressure;BME280_temperature;BME280_humidity;BME280_pressure;Samples;Min_cycle;Max_cycle;Signal;HPM_P1;HPM_P2
2023/04/23 00:02:01;;;;;;;;;;;;;;;19.34;nan;100821.59;5026025;28;20329;-85
2023/04/23 00:04:27;;;;;;;;;;;;;;;19.31;nan;100823.00;5036355;28;19917;-85
2023/04/23 00:06:53;;;;;;;;;;;;;;;19.29;nan;100819.78;5041985;28;19970;-85
2023/04/23 00:09:21;;;;;;;;;;;;;;;19.32;nan;100812.94;5039972;28;20419;-85
2023/04/23 00:11:46;;;;;;;;;;;;;;;19.28;nan;100809.22;5045484;28;19921;-85
2023/04/23 00:14:12;;;;;;;;;;;;;;;19.20;nan;100810.72;5040269;28;20104;-85
2023/04/23 00:16:38;;;;;;;;;;;;;;;19.13;nan;100796.78;5043935;28;20217;-85
2023/04/23 00:19:04;;;;;;;;;;;;;;;19.07;nan;100798.00;5040380;28;20527;-85
2023/04/23 00:21:30;;;;;;;;;;;;;;;19.07;nan;100789.03;5036868;28;20011;-85
2023/04/23 00:23:55;;;;;;;;;;;;;;;19.06;nan;100790.97;5027386;28;20115;-85
2023/04/23 00:26:21;;;;;;;;;;;;;;;19.08;nan;100790.66;5041432;28;20113;-84
2023/04/23 00:28:46;;;;;;;;;;;;;;;19.09;nan;100786.81;5037601;28;19917;-85
2023/04/23 00:31:11;;;;;;;;;;;;;;;19.10;nan;100783.00;5040885;28;20033;-85
2023/04/23 00:33:37;;;;;;;;;;;;;;;19.10;nan;100772.13;5039431;28;19960;-85
2023/04/23 00:36:03;;;;;;;;;;;;;;;19.09;nan;100773.25;5041464;28;19931;-85
2023/04/23 00:38:28;;;;;;;;;;;;;;;19.06;nan;100774.66;5040138;28;19916;-85
2023/04/23 00:40:53;;;;;;;;;;;;;;;19.09;nan;100775.97;5021924;28;19957;-85
2023/04/23 00:43:19;;;;;;;;;;;;;;;19.07;nan;100768.13;5040969;28;19944;-85
2023/04/23 00:45:45;;;;;;;;;;;;;;;19.09;nan;100765.09;5039404;28;19971;-85
2023/04/23 00:48:10;;;;;;;;;;;;;;;19.08;nan;100766.22;5036047;28;19916;-85
2023/04/23 00:50:36;;;;;;;;;;;;;;;19.08;nan;100747.22;5041949;28;19925;-85
2023/04/23 00:53:01;;;;;;;;;;;;;;;19.08;nan;100755.34;5035660;28;19917;-85
2023/04/23 00:55:26;;;;;;;;;;;;;;;19.07;nan;100753.75;5036598;28;20333;-85
2023/04/23 00:57:53;;;;;;;;;;;;;;;19.04;nan;100754.34;5041233;28;19945;-85
2023/04/23 01:00:19;;;;;;;;;;;;;;;19.00;nan;100746.78;5039680;28;19921;-85
2023/04/23 01:02:46;;;;;;;;;;;;;;;18.97;nan;100744.69;5038830;28;19924;-85
2023/04/23 01:05:13;;;;;;;;;;;;;;;18.97;nan;100744.69;5036767;28;20120;-85
2023/04/23 01:07:38;;;;;;;;;;;;;;;18.97;nan;100746.59;5038721;28;19925;-85
2023/04/23 01:10:04;;;;;;;;;;;;;;;18.95;nan;100743.41;5040804;28;19971;-85
2023/04/23 01:12:30;;;;;;;;;;;;;;;18.88;nan;100741.09;5039912;28;20329;-85
2023/04/23 01:14:55;;;;;;;;;;;;;;;18.79;nan;100740.19;5043410;28;20007;-85
2023/04/23 01:17:21;;;;;;;;;;;;;;;18.67;nan;100732.56;5037127;28;20545;-85
2023/04/23 01:19:47;;;;;;;;;;;;;;;18.56;nan;100724.91;5021972;28;20036;-84
2023/04/23 01:22:13;;;;;;;;;;;;;;;18.50;nan;100726.91;5038478;28;19924;-85
2023/04/23 01:24:41;;;;;;;;;;;;;;;18.43;nan;100716.44;5044858;28;20003;-85
2023/04/23 01:27:06;;;;;;;;;;;;;;;18.39;nan;100720.06;5040417;28;19963;-84
2023/04/23 01:29:32;;;;;;;;;;;;;;;18.36;nan;100721.47;5039768;28;20355;-85
2023/04/23 01:31:58;;;;;;;;;;;;;;;18.35;nan;100714.44;5038220;28;19928;-85
2023/04/23 01:34:23;;;;;;;;;;;;;;;18.35;nan;100719.88;5036415;28;19979;-85
2023/04/23 01:36:50;;;;;;;;;;;;;;;18.38;nan;100721.97;5045274;28;19963;-85
2023/04/23 01:39:16;;;;;;;;;;;;;;;18.41;nan;100734.94;5044102;28;19947;-85
2023/04/23 01:41:42;;;;;;;;;;;;;;;18.42;nan;100728.41;5041043;28;20039;-85
2023/04/23 01:44:07;;;;;;;;;;;;;;;18.42;nan;100730.31;5038702;28;19928;-84
2023/04/23 01:46:33;;;;;;;;;;;;;;;18.42;nan;100725.69;5039507;28;19931;-85
2023/04/23 01:48:58;;;;;;;;;;;;;;;18.41;nan;100729.50;5043069;28;19924;-84
2023/04/23 01:51:24;;;;;;;;;;;;;;;18.39;nan;100729.00;5042722;28;19920;-85
2023/04/23 01:53:50;;;;;;;;;;;;;;;18.34;nan;100726.41;5037521;28;19924;-84
2023/04/23 01:56:15;;;;;;;;;;;;;;;18.31;nan;100723.47;5041711;28;19921;-85
2023/04/23 01:58:41;;;;;;;;;;;;;;;18.31;nan;100723.47;5040655;28;19952;-84
2023/04/23 02:01:06;;;;;;;;;;;;;;;18.34;nan;100718.28;5043275;28;20104;-85
2023/04/23 02:03:32;;;;;;;;;;;;;;;18.36;nan;100715.25;5042660;28;19918;-85
2023/04/23 02:05:59;;;;;;;;;;;;;;;18.40;nan;100716.25;5041030;28;19935;-85
2023/04/23 02:08:25;;;;;;;;;;;;;;;18.39;nan;100718.16;5038593;28;19923;-85
2023/04/23 02:10:51;;;;;;;;;;;;;;;18.39;nan;100718.16;5040217;28;19928;-85
2023/04/23 02:13:16;;;;;;;;;;;;;;;18.42;nan;100714.84;5038513;28;19936;-85
2023/04/23 02:15:42;;;;;;;;;;;;;;;18.44;nan;100717.25;5039734;28;19933;-85
2023/04/23 02:18:07;;;;;;;;;;;;;;;18.43;nan;100713.75;5037773;28;19946;-85
2023/04/23 02:20:35;;;;;;;;;;;;;;;18.45;nan;100712.63;5037393;28;19929;-85
2023/04/23 02:23:01;;;;;;;;;;;;;;;18.43;nan;100708.31;5035665;28;19928;-85
2023/04/23 02:25:26;;;;;;;;;;;;;;;18.40;nan;100703.50;5039163;28;19924;-85
2023/04/23 02:27:51;;;;;;;;;;;;;;;18.40;nan;100706.22;5038772;28;19996;-85
2023/04/23 02:30:17;;;;;;;;;;;;;;;18.35;nan;100705.50;5038888;28;19920;-84
2023/04/23 02:32:42;;;;;;;;;;;;;;;18.31;nan;100709.91;5038675;28;20385;-85
2023/04/23 02:35:09;;;;;;;;;;;;;;;18.28;nan;100705.88;5037867;28;20008;-84
2023/04/23 02:37:35;;;;;;;;;;;;;;;18.28;nan;100705.88;5037339;28;19921;-85
2023/04/23 02:40:01;;;;;;;;;;;;;;;18.23;nan;100710.63;5040082;28;20092;-84
2023/04/23 02:42:26;;;;;;;;;;;;;;;18.23;nan;100702.47;5035551;28;19925;-86
2023/04/23 02:44:52;;;;;;;;;;;;;;;18.21;nan;100702.78;5039999;28;20207;-84
2023/04/23 02:47:17;;;;;;;;;;;;;;;18.28;nan;100707.78;5040483;28;19916;-84
2023/04/23 02:49:42;;;;;;;;;;;;;;;18.30;nan;100694.75;5020000;28;20142;-84
2023/04/23 02:52:08;;;;;;;;;;;;;;;18.34;nan;100693.06;5038105;28;20441;-85
2023/04/23 02:54:33;;;;;;;;;;;;;;;18.40;nan;100698.06;5040148;28;19939;-84
2023/04/23 02:56:58;;;;;;;;;;;;;;;18.47;nan;100696.84;5034000;28;20016;-84
2023/04/23 02:59:24;;;;;;;;;;;;;;;18.47;nan;100697.66;5037880;28;19931;-84
2023/04/23 03:01:50;;;;;;;;;;;;;;;18.50;nan;100691.66;5035585;28;19916;-85
2023/04/23 03:04:16;;;;;;;;;;;;;;;18.52;nan;100696.78;5041269;28;19932;-84
2023/04/23 03:06:42;;;;;;;;;;;;;;;18.52;nan;100694.06;5038353;28;21677;-84
2023/04/23 03:09:07;;;;;;;;;;;;;;;18.52;nan;100691.34;5040930;28;19963;-84
2023/04/23 03:11:33;;;;;;;;;;;;;;;18.51;nan;100693.25;5038743;28;20314;-84
2023/04/23 03:13:58;;;;;;;;;;;;;;;18.49;nan;100689.22;5022751;28;20298;-84
2023/04/23 03:16:23;;;;;;;;;;;;;;;18.47;nan;100696.84;5038768;28;20356;-85
2023/04/23 03:18:49;;;;;;;;;;;;;;;18.46;nan;100697.97;5036046;28;20016;-84
2023/04/23 03:21:14;;;;;;;;;;;;;;;18.48;nan;100695.75;5028617;28;20195;-84
2023/04/23 03:23:40;;;;;;;;;;;;;;;18.48;nan;100691.13;5043845;28;20023;-85
2023/04/23 03:26:05;;;;;;;;;;;;;;;18.48;nan;100693.03;5044167;28;19917;-85
2023/04/23 03:28:30;;;;;;;;;;;;;;;18.53;nan;100690.25;5029608;28;19917;-85
2023/04/23 03:30:56;;;;;;;;;;;;;;;18.55;nan;100690.75;5040989;28;19924;-84
2023/04/23 03:33:21;;;;;;;;;;;;;;;18.53;nan;100699.19;5042304;28;20074;-85
2023/04/23 03:35:46;;;;;;;;;;;;;;;18.48;nan;100684.91;5038700;28;19963;-85
2023/04/23 03:38:12;;;;;;;;;;;;;;;18.50;nan;100683.50;5042494;28;19932;-85
2023/04/23 03:40:37;;;;;;;;;;;;;;;18.54;nan;100679.09;5042337;28;19921;-84
2023/04/23 03:43:02;;;;;;;;;;;;;;;18.57;nan;100677.66;5029085;28;19920;-85
2023/04/23 03:45:29;;;;;;;;;;;;;;;18.61;nan;100676.75;5044899;28;19931;-85
2023/04/23 03:47:55;;;;;;;;;;;;;;;18.61;nan;100679.47;5045819;28;19921;-85
2023/04/23 03:50:20;;;;;;;;;;;;;;;18.63;nan;100673.75;5029168;28;19917;-85
2023/04/23 03:52:45;;;;;;;;;;;;;;;18.64;nan;100673.47;5049268;28;19921;-85
2023/04/23 03:55:11;;;;;;;;;;;;;;;18.66;nan;100670.44;5040429;28;19946;-85
2023/04/23 03:57:36;;;;;;;;;;;;;;;18.63;nan;100671.84;5042145;28;19916;-85
2023/04/23 04:00:02;;;;;;;;;;;;;;;18.63;nan;100674.56;5023918;28;19964;-85
2023/04/23 04:02:28;;;;;;;;;;;;;;;18.67;nan;100672.03;5040987;28;19917;-85
2023/04/23 04:04:53;;;;;;;;;;;;;;;18.71;nan;100671.16;5039673;28;20343;-84
2023/04/23 04:07:19;;;;;;;;;;;;;;;18.76;nan;100674.84;5042629;28;19956;-84
2023/04/23 04:09:46;;;;;;;;;;;;;;;18.75;nan;100679.50;5039167;28;19925;-85
2023/04/23 04:12:11;;;;;;;;;;;;;;;18.78;nan;100678.88;5042217;28;20378;-84
2023/04/23 04:14:36;;;;;;;;;;;;;;;18.82;nan;100671.72;5040343;28;19917;-85
2023/04/23 04:17:02;;;;;;;;;;;;;;;18.86;nan;100671.94;5042012;28;20003;-84
2023/04/23 04:19:27;;;;;;;;;;;;;;;18.89;nan;100672.13;5035853;28;19928;-84
2023/04/23 04:21:52;;;;;;;;;;;;;;;18.93;nan;100677.75;5027669;28;19921;-84
2023/04/23 04:24:18;;;;;;;;;;;;;;;18.95;nan;100683.66;5037494;28;19933;-84
2023/04/23 04:26:44;;;;;;;;;;;;;;;18.91;nan;100678.03;5042839;28;19924;-84
2023/04/23 04:29:09;;;;;;;;;;;;;;;18.91;nan;100669.91;5042551;28;19924;-84
2023/04/23 04:31:36;;;;;;;;;;;;;;;18.92;nan;100674.22;5042787;28;19916;-84
2023/04/23 04:34:01;;;;;;;;;;;;;;;18.92;nan;100679.66;5040944;28;19967;-84
2023/04/23 04:36:27;;;;;;;;;;;;;;;18.94;nan;100676.63;5041406;28;19952;-84
2023/04/23 04:38:57;;;;;;;;;;;;;;;18.96;nan;100679.84;5039598;28;20004;-84
2023/04/23 04:41:26;;;;;;;;;;;;;;;18.99;nan;100681.94;5035971;28;20412;-84
2023/04/23 04:43:52;;;;;;;;;;;;;;;18.97;nan;100682.25;5045098;28;19924;-84
2023/04/23 04:46:20;;;;;;;;;;;;;;;18.95;nan;100667.38;5043615;28;19920;-84
2023/04/23 04:48:48;;;;;;;;;;;;;;;19.00;nan;100669.97;5041216;28;19921;-84
2023/04/23 04:51:13;;;;;;;;;;;;;;;18.97;nan;100678.72;5039117;28;20317;-84
2023/04/23 04:53:39;;;;;;;;;;;;;;;18.98;nan;100681.13;5039310;28;19924;-84
2023/04/23 04:56:04;;;;;;;;;;;;;;;18.98;nan;100673.00;5040684;28;20007;-84
2023/04/23 04:58:30;;;;;;;;;;;;;;;18.99;nan;100674.59;5027219;28;21556;-84
2023/04/23 05:00:56;;;;;;;;;;;;;;;18.98;nan;100678.41;5043363;28;19927;-84
2023/04/23 05:03:21;;;;;;;;;;;;;;;18.98;nan;100685.75;5043724;28;19925;-84
2023/04/23 05:05:49;;;;;;;;;;;;;;;18.96;nan;100677.94;5042414;28;20290;-84
2023/04/23 05:08:17;;;;;;;;;;;;;;;18.98;nan;100673.00;5042906;28;20024;-84
2023/04/23 05:10:43;;;;;;;;;;;;;;;18.99;nan;100658.31;5038523;28;19968;-84
2023/04/23 05:13:09;;;;;;;;;;;;;;;19.02;nan;100670.47;5041043;28;19967;-85
2023/04/23 05:15:34;;;;;;;;;;;;;;;19.05;nan;100664.44;5039348;28;19917;-84
2023/04/23 05:18:01;;;;;;;;;;;;;;;19.07;nan;100670.38;5041301;28;19917;-84
2023/04/23 05:20:27;;;;;;;;;;;;;;;19.10;nan;100669.75;5038892;28;20012;-84
2023/04/23 05:22:52;;;;;;;;;;;;;;;19.15;nan;100660.69;5024219;28;20023;-84
2023/04/23 05:25:17;;;;;;;;;;;;;;;19.22;nan;100661.06;5039281;28;20011;-84
2023/04/23 05:27:43;;;;;;;;;;;;;;;19.26;nan;100668.28;5028111;28;19921;-85
2023/04/23 05:30:09;;;;;;;;;;;;;;;19.27;nan;100675.31;5041679;28;19921;-84
2023/04/23 05:32:35;;;;;;;;;;;;;;;19.25;nan;100676.75;5041453;28;19916;-85
2023/04/23 05:35:04;;;;;;;;;;;;;;;19.25;nan;100676.75;5038494;28;20297;-84
2023/04/23 05:37:29;;;;;;;;;;;;;;;19.28;nan;100681.56;5037255;28;19929;-84
2023/04/23 05:39:56;;;;;;;;;;;;;;;19.35;nan;100678.41;5037741;28;20015;-84
2023/04/23 05:42:21;;;;;;;;;;;;;;;19.35;nan;100679.22;5037820;28;19917;-84
2023/04/23 05:44:46;;;;;;;;;;;;;;;19.33;nan;100689.56;5041538;28;20419;-84
2023/04/23 05:47:13;;;;;;;;;;;;;;;19.33;nan;100684.94;5042250;28;19920;-84
2023/04/23 05:49:38;;;;;;;;;;;;;;;19.35;nan;100687.34;5027479;28;20297;-84
2023/04/23 05:52:04;;;;;;;;;;;;;;;19.35;nan;100691.97;5040973;28;19948;-84
2023/04/23 05:54:29;;;;;;;;;;;;;;;19.33;nan;100684.16;5038141;28;20374;-84
2023/04/23 05:56:54;;;;;;;;;;;;;;;19.31;nan;100691.81;5022220;28;19960;-84
2023/04/23 05:59:20;;;;;;;;;;;;;;;19.33;nan;100690.38;5042026;28;19921;-84
2023/04/23 06:01:46;;;;;;;;;;;;;;;19.39;nan;100692.97;5041069;28;20114;-84
2023/04/23 06:04:12;;;;;;;;;;;;;;;19.46;nan;100686.00;5042121;28;19962;-84
2023/04/23 06:06:38;;;;;;;;;;;;;;;19.55;nan;100686.88;5040589;28;20405;-84
2023/04/23 06:09:03;;;;;;;;;;;;;;;19.70;nan;100682.19;5036929;28;20394;-84
2023/04/23 06:11:30;;;;;;;;;;;;;;;19.88;nan;100684.69;5035282;28;19912;-84
2023/04/23 06:13:56;;;;;;;;;;;;;;;20.13;nan;100683.25;5036083;28;19917;-84
2023/04/23 06:16:22;;;;;;;;;;;;;;;20.36;nan;100678.53;5039467;28;19924;-84
2023/04/23 06:18:48;;;;;;;;;;;;;;;20.57;nan;100681.50;5018523;28;19920;-85
2023/04/23 06:21:13;;;;;;;;;;;;;;;20.77;nan;100689.06;5039054;28;21264;-85
2023/04/23 06:23:39;;;;;;;;;;;;;;;20.90;nan;100678.34;5037896;28;20072;-85
2023/04/23 06:26:04;;;;;;;;;;;;;;;21.02;nan;100681.25;5037096;28;19925;-84
2023/04/23 06:28:30;;;;;;;;;;;;;;;21.17;nan;100679.97;5043969;28;19924;-85
2023/04/23 06:30:55;;;;;;;;;;;;;;;21.26;nan;100676.16;5046926;28;20298;-85
2023/04/23 06:33:21;;;;;;;;;;;;;;;21.33;nan;100681.91;5038676;28;19925;-84
2023/04/23 06:35:46;;;;;;;;;;;;;;;21.42;nan;100682.72;5042962;28;19920;-85
2023/04/23 06:38:11;;;;;;;;;;;;;;;21.48;nan;100677.09;5033847;28;19943;-85
2023/04/23 06:40:37;;;;;;;;;;;;;;;21.54;nan;100673.88;5056653;28;19929;-84
2023/04/23 06:43:04;;;;;;;;;;;;;;;21.62;nan;100675.78;5049547;28;19996;-85
2023/04/23 06:45:32;;;;;;;;;;;;;;;21.68;nan;100674.50;5057733;28;19923;-85
2023/04/23 06:47:57;;;;;;;;;;;;;;;21.75;nan;100684.91;5059278;28;19925;-84
2023/04/23 06:50:22;;;;;;;;;;;;;;;21.79;nan;100683.13;5056441;28;19928;-86
2023/04/23 06:52:48;;;;;;;;;;;;;;;21.81;nan;100678.16;5056849;28;19988;-85
2023/04/23 06:55:13;;;;;;;;;;;;;;;21.85;nan;100679.09;5034823;28;19924;-85
2023/04/23 06:57:39;;;;;;;;;;;;;;;21.87;nan;100676.84;5041462;28;19920;-85
2023/04/23 07:00:08;;;;;;;;;;;;;;;21.88;nan;100681.16;5057701;28;19924;-85
2023/04/23 07:02:35;;;;;;;;;;;;;;;21.87;nan;100682.31;5047509;28;20469;-84
2023/04/23 07:05:00;;;;;;;;;;;;;;;21.87;nan;100682.31;5045464;28;19921;-84
2023/04/23 07:07:25;;;;;;;;;;;;;;;21.87;nan;100676.84;5050489;28;20350;-84
2023/04/23 07:09:51;;;;;;;;;;;;;;;21.88;nan;100677.66;5048731;28;20338;-84
2023/04/23 07:12:16;;;;;;;;;;;;;;;21.94;nan;100668.19;5045267;28;20341;-84
2023/04/23 07:14:42;;;;;;;;;;;;;;;22.01;nan;100680.19;5043873;28;20004;-84
2023/04/23 07:17:07;;;;;;;;;;;;;;;22.01;nan;100663.81;5044805;28;19917;-85
2023/04/23 07:19:32;;;;;;;;;;;;;;;22.06;nan;100673.75;5043189;28;19953;-85
2023/04/23 07:21:58;;;;;;;;;;;;;;;22.12;nan;100667.03;5045900;28;19917;-85
2023/04/23 07:24:25;;;;;;;;;;;;;;;22.21;nan;100664.25;5044656;28;20027;-85
2023/04/23 07:26:52;;;;;;;;;;;;;;;22.29;nan;100660.69;5040339;28;19917;-85
2023/04/23 07:29:18;;;;;;;;;;;;;;;22.29;nan;100666.16;5042424;28;20016;-85
2023/04/23 07:31:43;;;;;;;;;;;;;;;22.35;nan;100662.09;5038749;28;19925;-85
2023/04/23 07:34:09;;;;;;;;;;;;;;;22.43;nan;100665.91;5047600;28;20302;-85
2023/04/23 07:36:34;;;;;;;;;;;;;;;22.54;nan;100661.66;5045069;28;19952;-85
2023/04/23 07:39:00;;;;;;;;;;;;;;;22.62;nan;100660.78;5038792;28;19917;-85
2023/04/23 07:41:25;;;;;;;;;;;;;;;22.66;nan;100667.22;5028567;28;19921;-85
2023/04/23 07:43:51;;;;;;;;;;;;;;;22.66;nan;100659.03;5042408;28;19920;-85
2023/04/23 07:46:16;;;;;;;;;;;;;;;22.63;nan;100658.91;5046614;28;19967;-85
2023/04/23 07:48:41;;;;;;;;;;;;;;;22.59;nan;100659.53;5023459;28;19975;-85
2023/04/23 07:51:07;;;;;;;;;;;;;;;22.54;nan;100665.19;5042414;28;19932;-85
2023/04/23 07:53:33;;;;;;;;;;;;;;;22.55;nan;100666.00;5044145;28;19924;-85
2023/04/23 07:55:59;;;;;;;;;;;;;;;22.51;nan;100674.06;5046996;28;19953;-85
2023/04/23 07:58:24;;;;;;;;;;;;;;;22.47;nan;100670.38;5040840;28;19916;-85
2023/04/23 08:00:50;;;;;;;;;;;;;;;22.42;nan;100672.47;5042710;28;19925;-85
2023/04/23 08:03:15;;;;;;;;;;;;;;;22.33;nan;100677.19;5043864;28;19943;-85
2023/04/23 08:05:43;;;;;;;;;;;;;;;22.33;nan;100672.53;5035604;28;19975;-85
2023/04/23 08:08:10;;;;;;;;;;;;;;;22.23;nan;100672.91;5044041;28;20305;-85
2023/04/23 08:10:35;;;;;;;;;;;;;;;22.22;nan;100679.47;5039753;28;19925;-85
2023/04/23 08:13:01;;;;;;;;;;;;;;;22.16;nan;100684.34;5044588;28;19932;-84
2023/04/23 08:15:26;;;;;;;;;;;;;;;22.15;nan;100682.72;5043433;28;19997;-84
2023/04/23 08:17:51;;;;;;;;;;;;;;;22.16;nan;100684.34;5045603;28;20004;-85
2023/04/23 08:20:17;;;;;;;;;;;;;;;22.18;nan;100678.53;5045764;28;20281;-85
2023/04/23 08:22:43;;;;;;;;;;;;;;;22.18;nan;100682.06;5040113;28;20563;-85
2023/04/23 08:25:08;;;;;;;;;;;;;;;22.18;nan;100681.28;5045391;28;20385;-85
2023/04/23 08:27:34;;;;;;;;;;;;;;;22.18;nan;100681.28;5028141;28;20387;-85
2023/04/23 08:29:59;;;;;;;;;;;;;;;22.18;nan;100689.47;5042096;28;19917;-85
2023/04/23 08:32:25;;;;;;;;;;;;;;;22.20;nan;100679.81;5037884;28;19918;-86
2023/04/23 08:34:50;;;;;;;;;;;;;;;22.16;nan;100684.34;5040817;28;19920;-85
2023/04/23 08:37:15;;;;;;;;;;;;;;;22.15;nan;100692.84;5040168;28;20123;-85
2023/04/23 08:39:41;;;;;;;;;;;;;;;22.05;nan;100691.25;5044749;28;20181;-84
2023/04/23 08:42:11;;;;;;;;;;;;;;;22.07;nan;100690.94;5039725;28;20204;-85
2023/04/23 08:44:40;;;;;;;;;;;;;;;22.06;nan;100694.78;5040291;28;20325;-85
2023/04/23 08:47:06;;;;;;;;;;;;;;;22.03;nan;100693.50;5039679;28;19963;-85
2023/04/23 08:49:32;;;;;;;;;;;;;;;21.98;nan;100699.94;5040874;28;19956;-85
2023/04/23 08:52:03;;;;;;;;;;;;;;;21.93;nan;100700.13;5041909;28;19924;-85
2023/04/23 08:54:31;;;;;;;;;;;;;;;21.91;nan;100702.38;5037377;28;19949;-86
2023/04/23 08:57:00;;;;;;;;;;;;;;;21.90;nan;100700.78;5040381;28;20705;-86
2023/04/23 08:59:28;;;;;;;;;;;;;;;21.91;nan;100707.03;5037272;28;19970;-84
2023/04/23 09:01:54;;;;;;;;;;;;;;;21.91;nan;100712.47;5040261;28;20291;-85
2023/04/23 09:04:21;;;;;;;;;;;;;;;21.86;nan;100710.69;5038978;28;19916;-84
2023/04/23 09:06:46;;;;;;;;;;;;;;;21.87;nan;100708.78;5021530;28;19952;-85
2023/04/23 09:09:15;;;;;;;;;;;;;;;21.88;nan;100710.38;5041668;28;19960;-84
2023/04/23 09:11:41;;;;;;;;;;;;;;;21.88;nan;100707.66;5047748;28;19923;-84
2023/04/23 09:14:07;;;;;;;;;;;;;;;21.88;nan;100708.44;5044549;28;20310;-86
2023/04/23 09:16:32;;;;;;;;;;;;;;;21.87;nan;100720.50;5041111;28;20027;-85
2023/04/23 09:18:58;;;;;;;;;;;;;;;21.82;nan;100717.94;5042545;28;19960;-85
2023/04/23 09:21:23;;;;;;;;;;;;;;;21.82;nan;100717.94;5045167;28;19978;-85
2023/04/23 09:23:52;;;;;;;;;;;;;;;21.82;nan;100717.94;5019563;28;19928;-86
2023/04/23 09:26:21;;;;;;;;;;;;;;;21.87;nan;100725.13;5033820;28;20349;-85
2023/04/23 09:28:49;;;;;;;;;;;;;;;21.85;nan;100719.22;5038043;28;20321;-84
2023/04/23 09:31:16;;;;;;;;;;;;;;;21.86;nan;100724.34;5044567;28;19924;-84
2023/04/23 09:33:42;;;;;;;;;;;;;;;21.93;nan;100719.22;5045305;28;19940;-84
2023/04/23 09:36:13;;;;;;;;;;;;;;;21.97;nan;100720.16;5044475;28;20414;-84
2023/04/23 09:38:41;;;;;;;;;;;;;;;21.95;nan;100727.88;5027964;28;19991;-85
2023/04/23 09:41:19;;;;;;;;;;;;;;;21.88;nan;100722.09;5036715;28;19927;-85
2023/04/23 09:43:46;;;;;;;;;;;;;;;21.80;nan;100728.38;5040940;28;19921;-85
2023/04/23 09:46:11;;;;;;;;;;;;;;;21.78;nan;100727.09;5038506;28;19925;-85
2023/04/23 09:48:41;;;;;;;;;;;;;;;21.75;nan;100716.84;5039701;28;19947;-85
2023/04/23 09:51:06;;;;;;;;;;;;;;;21.76;nan;100715.72;5033812;28;20015;-86
2023/04/23 09:53:42;;;;;;;;;;;;;;;21.77;nan;100722.78;5020510;28;19930;-85
2023/04/23 09:56:07;;;;;;;;;;;;;;;21.72;nan;100721.00;5026259;28;20665;-85
2023/04/23 09:58:33;;;;;;;;;;;;;;;21.73;nan;100719.91;5035038;28;19925;-85
2023/04/23 10:01:05;;;;;;;;;;;;;;;21.76;nan;100721.16;5043174;28;19921;-85
2023/04/23 10:03:30;;;;;;;;;;;;;;;21.75;nan;100731.28;5019254;28;20498;-86
2023/04/23 10:05:57;;;;;;;;;;;;;;;21.71;nan;100727.56;5037265;28;20004;-86
2023/04/23 10:08:23;;;;;;;;;;;;;;;21.66;nan;100720.38;5036994;28;20027;-85
2023/04/23 10:10:48;;;;;;;;;;;;;;;21.62;nan;100730.31;5038708;28;20019;-85
2023/04/23 10:13:37;;;;;;;;;;;;;;;21.64;nan;100728.06;5038430;28;19932;-85
2023/04/23 10:16:10;;;;;;;;;;;;;;;21.59;nan;100724.72;5017382;28;19917;-84
2023/04/23 10:18:36;;;;;;;;;;;;;;;21.54;nan;100727.59;5042902;23;19933;-82
2023/04/23 10:21:02;;;;;;;;;;;;;;;21.57;nan;100733.22;5042078;28;19963;-82
2023/04/23 10:23:28;;;;;;;;;;;;;;;21.50;nan;100730.16;5049008;28;19916;-82
2023/04/23 10:25:54;;;;;;;;;;;;;;;21.48;nan;100726.16;5041297;28;19923;-82
2023/04/23 10:28:25;;;;;;;;;;;;;;;21.48;nan;100732.41;5043449;28;20104;-83
2023/04/23 10:30:52;;;;;;;;;;;;;;;21.52;nan;100738.00;5044391;28;19924;-80
2023/04/23 10:33:19;;;;;;;;;;;;;;;21.53;nan;100731.44;5045973;28;19923;-80
2023/04/23 10:35:46;;;;;;;;;;;;;;;21.52;nan;100735.28;5044214;28;20588;-80
2023/04/23 10:38:11;;;;;;;;;;;;;;;21.59;nan;100736.44;5050146;28;20441;-80
2023/04/23 10:40:39;;;;;;;;;;;;;;;21.62;nan;100724.88;5047484;28;19927;-81
2023/04/23 10:43:04;;;;;;;;;;;;;;;21.58;nan;100726.66;5047091;28;19916;-80
2023/04/23 10:45:31;;;;;;;;;;;;;;;21.63;nan;100723.75;5043666;28;19931;-80
2023/04/23 10:47:57;;;;;;;;;;;;;;;21.67;nan;100721.16;5046536;28;19994;-80
2023/04/23 10:50:22;;;;;;;;;;;;;;;21.71;nan;100724.84;5040417;28;19921;-80
2023/04/23 10:52:52;;;;;;;;;;;;;;;21.77;nan;100729.03;5045775;28;19917;-81
2023/04/23 10:55:18;;;;;;;;;;;;;;;21.72;nan;100726.44;5026567;28;19916;-81
2023/04/23 10:58:01;;;;;;;;;;;;;;;21.71;nan;100730.28;5049239;28;19924;-81
2023/04/23 11:00:27;;;;;;;;;;;;;;;21.70;nan;100725.97;5024560;28;19952;-80
2023/04/23 11:02:52;;;;;;;;;;;;;;;21.69;nan;100722.44;5044214;28;20416;-81
2023/04/23 11:05:18;;;;;;;;;;;;;;;21.73;nan;100716.38;5046140;28;19916;-80
2023/04/23 11:08:01;;;;;;;;;;;;;;;21.76;nan;100727.44;5043163;28;19921;-80
2023/04/23 11:10:26;;;;;;;;;;;;;;;21.76;nan;100721.16;5036599;28;19929;-80
2023/04/23 11:12:54;;;;;;;;;;;;;;;21.70;nan;100725.97;5037361;28;20013;-80
2023/04/23 11:15:20;;;;;;;;;;;;;;;21.70;nan;100726.78;5036701;28;20499;-80
2023/04/23 11:17:47;;;;;;;;;;;;;;;21.72;nan;100723.72;5038004;28;20015;-80
2023/04/23 11:20:19;;;;;;;;;;;;;;;21.78;nan;100719.72;5020491;28;20938;-80
2023/04/23 11:22:48;;;;;;;;;;;;;;;21.86;nan;100718.09;5039373;28;19920;-80
2023/04/23 11:25:20;;;;;;;;;;;;;;;21.91;nan;100715.22;5040445;28;19936;-80
2023/04/23 11:27:46;;;;;;;;;;;;;;;21.96;nan;100718.56;5040780;28;19931;-79
2023/04/23 11:30:12;;;;;;;;;;;;;;;21.97;nan;100717.44;5040404;28;20685;-80
2023/04/23 11:32:39;;;;;;;;;;;;;;;22.02;nan;100711.78;5039659;28;19920;-80
2023/04/23 11:35:05;;;;;;;;;;;;;;;22.05;nan;100715.03;5036452;28;19920;-79
2023/04/23 11:37:32;;;;;;;;;;;;;;;22.00;nan;100711.31;5043715;28;19924;-79
2023/04/23 11:40:05;;;;;;;;;;;;;;;21.97;nan;100709.25;5048687;28;19928;-79
2023/04/23 11:42:30;;;;;;;;;;;;;;;21.98;nan;100716.31;5050451;28;19923;-79
2023/04/23 11:44:55;;;;;;;;;;;;;;;21.93;nan;100724.66;5027019;28;20019;-81
2023/04/23 11:47:24;;;;;;;;;;;;;;;21.86;nan;100723.53;5045509;28;20011;-85
2023/04/23 11:49:50;;;;;;;;;;;;;;;21.83;nan;100727.72;5039133;28;19924;-83
2023/04/23 11:52:15;;;;;;;;;;;;;;;21.86;nan;100734.44;5036786;28;20374;-83
2023/04/23 11:54:41;;;;;;;;;;;;;;;21.81;nan;100732.69;5030734;28;19923;-83
2023/04/23 11:57:07;;;;;;;;;;;;;;;21.82;nan;100739.75;5042632;28;19979;-82
2023/04/23 11:59:33;;;;;;;;;;;;;;;21.83;nan;100746.00;5038327;28;20574;-82
2023/04/23 12:01:58;;;;;;;;;;;;;;;21.77;nan;100753.56;5040754;28;19921;-80
2023/04/23 12:04:25;;;;;;;;;;;;;;;21.70;nan;100770.41;5037310;28;19926;-80
2023/04/23 12:06:52;;;;;;;;;;;;;;;21.66;nan;100774.09;5040384;28;20461;-80
2023/04/23 12:09:19;;;;;;;;;;;;;;;21.47;nan;100766.25;5039391;28;19971;-79
2023/04/23 12:11:45;;;;;;;;;;;;;;;21.29;nan;100768.16;5044722;28;19925;-79
2023/04/23 12:14:11;;;;;;;;;;;;;;;21.21;nan;100768.94;5041562;28;20531;-79
2023/04/23 12:16:40;;;;;;;;;;;;;;;21.26;nan;100768.00;5044482;28;20012;-79
2023/04/23 12:19:15;;;;;;;;;;;;;;;21.39;nan;100767.06;5042644;28;19952;-79
2023/04/23 12:21:57;;;;;;;;;;;;;;;21.54;nan;100761.09;5040103;28;20302;-79
2023/04/23 12:24:24;;;;;;;;;;;;;;;21.64;nan;100765.44;5019290;28;19917;-79
2023/04/23 12:26:53;;;;;;;;;;;;;;;21.75;nan;100771.38;5036401;28;21697;-79
2023/04/23 12:29:18;;;;;;;;;;;;;;;21.83;nan;100765.91;5039968;28;20051;-79
2023/04/23 12:31:44;;;;;;;;;;;;;;;21.85;nan;100765.56;5043000;28;20007;-78
2023/04/23 12:34:09;;;;;;;;;;;;;;;21.81;nan;100776.34;5038866;28;20377;-79
2023/04/23 12:36:36;;;;;;;;;;;;;;;21.80;nan;100779.38;5024936;28;19921;-79
2023/04/23 12:39:23;;;;;;;;;;;;;;;21.84;nan;100783.88;5040640;28;20513;-78
2023/04/23 12:42:03;;;;;;;;;;;;;;;21.87;nan;100779.69;5043094;28;19948;-78
2023/04/23 12:44:29;;;;;;;;;;;;;;;21.84;nan;100786.59;5042090;28;19994;-79
2023/04/23 12:46:55;;;;;;;;;;;;;;;21.84;nan;100786.59;5042121;28;19940;-78
2023/04/23 12:49:21;;;;;;;;;;;;;;;21.84;nan;100792.06;5041706;28;19929;-78
2023/04/23 12:51:46;;;;;;;;;;;;;;;21.82;nan;100788.03;5036875;28;19928;-78
2023/04/23 12:54:12;;;;;;;;;;;;;;;21.80;nan;100802.00;5042686;28;20039;-79